WetterOnline ( https://www.wetteronline.de )

Wetter aktuell Siegerland (in 500m)

Aktuelles Wetter: Bad Marienberg (555m)

6-stündlich | Neueste Meldungen
Ortszeit Temperatur Wetter
Mo, 23.05. 2:00 13.8° C bedeckt
So, 22.05. 20:00 17.5° C leicht bewölkt
So, 22.05. 14:00 18.3° C fast wolkenlos
So, 22.05. 8:00 12.8° C bewölkt
So, 22.05. 2:00 11.4° C fast wolkenlos
Sa, 21.05. 20:00 14.2° C bedeckt
Sa, 21.05. 14:00 13.7° C bewölkt
Sa, 21.05. 8:00 9.0° C bewölkt
Ortszeit Temperatur Wetter
Mo, 23.05. 3:30 13.4° C bewölkt
Mo, 23.05. 3:20 13.4° C bewölkt
Mo, 23.05. 3:10 13.3° C bedeckt
Mo, 23.05. 3:00 13.4° C bewölkt
Mo, 23.05. 2:50 13.4° C bewölkt
Mo, 23.05. 2:40 13.5° C bewölkt
Mo, 23.05. 2:30 13.7° C bedeckt
Mo, 23.05. 2:00 13.8° C bedeckt
Mo, 23.05. 1:30 13.7° C bedeckt
Mo, 23.05. 1:00 14.0° C bedeckt
Mo, 23.05. 0:30 14.2° C bedeckt
Ortszeit Relative Feuchte Sichtweite
Mo, 23.05. 2:00 67% 60 km
So, 22.05. 20:00 50% 65 km
So, 22.05. 14:00 50% >70 km
So, 22.05. 8:00 67% 35 km
So, 22.05. 2:00 70% 40 km
Sa, 21.05. 20:00 63% 65 km
Sa, 21.05. 14:00 64% >70 km
Sa, 21.05. 8:00 87% 60 km
Ortszeit Relative Feuchte Sichtweite
Mo, 23.05. 3:30 69% 65 km
Mo, 23.05. 3:20 69% -
Mo, 23.05. 3:10 70% -
Mo, 23.05. 3:00 69% 55 km
Mo, 23.05. 2:50 69% -
Mo, 23.05. 2:40 68% -
Mo, 23.05. 2:30 68% 55 km
Mo, 23.05. 2:00 67% 60 km
Mo, 23.05. 1:30 66% 50 km
Mo, 23.05. 1:00 65% 50 km
Mo, 23.05. 0:30 64% 50 km
Ortszeit Niederschlagsmenge Niederschlagsart
Mo, 23.05. 2:00 0.0 l/m2 in 6 Std. -
So, 22.05. 20:00 0.0 l/m2 in 12 Std. -
So, 22.05. 14:00 0.0 l/m2 in 6 Std. -
So, 22.05. 8:00 0.0 l/m2 in 12 Std. -
So, 22.05. 2:00 0.0 l/m2 in 6 Std. -
Sa, 21.05. 20:00 0.0 l/m2 in 12 Std. -
Sa, 21.05. 14:00 0.0 l/m2 in 6 Std. -
Sa, 21.05. 8:00 0.1 l/m2 in 12 Std. -
Ortszeit Niederschlagsmenge Niederschlagsart
Mo, 23.05. 3:30 0.0 l/m2 in 1 Std. -
Mo, 23.05. 3:20 keine Meldung -
Mo, 23.05. 3:10 keine Meldung -
Mo, 23.05. 3:00 0.0 l/m2 in 1 Std. -
Mo, 23.05. 2:50 keine Meldung -
Mo, 23.05. 2:40 keine Meldung -
Mo, 23.05. 2:30 0.0 l/m2 in 1 Std. -
Mo, 23.05. 2:00 0.0 l/m2 in 1 Std. -
Mo, 23.05. 1:30 0.0 l/m2 in 1 Std. -
Mo, 23.05. 1:00 0.0 l/m2 in 1 Std. -
Mo, 23.05. 0:30 0.0 l/m2 in 1 Std. -
Ortszeit Stärke Spitze Richtung
km/h Bft. km/h Grad Sektor
Mo, 23.05. 2:00 11 2 25 100° O
So, 22.05. 20:00 9 2 20 150° SO
So, 22.05. 14:00 9 2 20 160° S
So, 22.05. 8:00 6 1 7 130° SO
So, 22.05. 2:00 4 1 14 350° N
Sa, 21.05. 20:00 4 1 29 300° NW
Sa, 21.05. 14:00 13 3 33 290° W
Sa, 21.05. 8:00 15 3 37 250° W
Ortszeit Stärke Spitze Richtung
km/h Bft. km/h Grad Sektor
Mo, 23.05. 3:30 14 3 29 110° O
Mo, 23.05. 3:20 14 3 - 110° O
Mo, 23.05. 3:10 18 3 - 120° SO
Mo, 23.05. 3:00 20 4 28 120° SO
Mo, 23.05. 2:50 20 4 - 120° SO
Mo, 23.05. 2:40 17 3 - 120° SO
Mo, 23.05. 2:30 15 3 22 120° SO
Mo, 23.05. 2:00 11 2 22 100° O
Mo, 23.05. 1:30 13 3 20 110° O
Mo, 23.05. 1:00 13 3 24 110° O
Mo, 23.05. 0:30 13 3 24 120° SO
Ortszeit Untergrenze Bedeckung Gattung
total tief tief mittel hoch
Mo, 23.05. 2:00 3300 m 8/8 8/8 - - -
So, 22.05. 20:00 9000 m 8/8 0/8 - - -
So, 22.05. 14:00 1380 m 1/8 1/8 - - -
So, 22.05. 8:00 1230 m 7/8 7/8 - - -
So, 22.05. 2:00 7800 m 2/8 0/8 - - -
Sa, 21.05. 20:00 3900 m 8/8 8/8 - - -
Sa, 21.05. 14:00 870 m 7/8 6/8 - - -
Sa, 21.05. 8:00 420 m 7/8 7/8 - - -
Ortszeit Bedeckungsgrad in Achtel und Wolkenuntergrenze
Mo, 23.05. 3:30 7(3300m) 8(8400m) 8(10500m)
Mo, 23.05. 3:20 7(3300m) 8(8400m) 8(10500m)
Mo, 23.05. 3:10 8
Mo, 23.05. 3:00 7(3600m) 7(8400m) 7(10500m)
Mo, 23.05. 2:50 7(3600m) 7(8400m) 7(10500m)
Mo, 23.05. 2:40 7
Mo, 23.05. 2:30 7(3600m) 8(4200m) 8(5400m)
Mo, 23.05. 2:00 7(3300m) 8(3900m) 8(4800m)
Mo, 23.05. 1:30 8(3600m) 8(6600m)
Mo, 23.05. 1:00 7(3900m) 8(5100m) 8(7200m)
Mo, 23.05. 0:30 8(4200m) 8(5400m) 8(8400m)
Ortszeit Luftdruck NN (hPa) Tendenz (hPa in 3 Std.)
Mo, 23.05. 2:00 1010 - 1,7
So, 22.05. 20:00 1012 - 1,1
So, 22.05. 14:00 1014 - 1,2
So, 22.05. 8:00 1018 - 0,6
So, 22.05. 2:00 1020 - 0,9
Sa, 21.05. 20:00 1020 - 1,2
Sa, 21.05. 14:00 1022 + 0,3
Sa, 21.05. 8:00 1022 + 0,4
Ortszeit Luftdruck NN (hPa) Tendenz (hPa in 3 Std.)
Mo, 23.05. 3:30 1009 - 2,1
Mo, 23.05. 3:20 1009 keine Meldung
Mo, 23.05. 3:10 1009 keine Meldung
Mo, 23.05. 3:00 1009 - 1,7
Mo, 23.05. 2:50 1009 keine Meldung
Mo, 23.05. 2:40 1009 keine Meldung
Mo, 23.05. 2:30 1009 - 1,6
Mo, 23.05. 2:00 1010 - 1,7
Mo, 23.05. 1:30 1010 - 1,4
Mo, 23.05. 1:00 1010 - 1,2
Mo, 23.05. 0:30 1011 - 0,8
Ortszeit Schneehöhe (cm)
Mo, 23.05. 2:00 0
So, 22.05. 20:00 0
So, 22.05. 14:00 0
So, 22.05. 8:00 0
So, 22.05. 2:00 0
Sa, 21.05. 20:00 0
Sa, 21.05. 14:00 0
Sa, 21.05. 8:00 0
Ortszeit Schneehöhe (cm)
Mo, 23.05. 3:30 0
Mo, 23.05. 3:20 0
Mo, 23.05. 3:10 0
Mo, 23.05. 3:00 0
Mo, 23.05. 2:50 0
Mo, 23.05. 2:40 0
Mo, 23.05. 2:30 0
Mo, 23.05. 2:00 0
Mo, 23.05. 1:30 0
Mo, 23.05. 1:00 0
Mo, 23.05. 0:30 0
Link zu dieser Seite / Seite empfehlen

Das Wetter in ...